Time;durP1;ratioP1;P1;durP2;ratioP2;P2;SDS_P1;SDS_P2;PMS_P1;PMS_P2;Temp;Humidity;BMP_temperature;BMP_pressure;BME280_temperature;BME280_humidity;BME280_pressure;Samples;Min_cycle;Max_cycle;Signal;HPM_P1;HPM_P2
2022/09/18 00:01:15;;;;;;;6.63;3.05;;;;;;;21.94;73.19;100452.22;2076901;28;20053;-78
2022/09/18 00:02:38;;;;;;;5.45;3.30;;;;;;;21.90;73.19;100442.53;2082906;28;20049;-78
2022/09/18 00:04:01;;;;;;;4.45;3.20;;;;;;;21.95;73.51;100442.34;2103584;28;20479;-78
2022/09/18 00:05:24;;;;;;;7.20;3.13;;;;;;;21.98;73.62;100448.53;2090152;28;20056;-78
2022/09/18 00:06:45;;;;;;;6.50;3.13;;;;;;;22.04;74.04;100448.31;2084867;28;20467;-78
2022/09/18 00:08:08;;;;;;;6.00;3.33;;;;;;;22.09;74.30;100448.13;2090412;28;20538;-78
2022/09/18 00:09:31;;;;;;;5.60;3.20;;;;;;;22.06;74.23;100445.56;2093457;28;20154;-78
2022/09/18 00:10:53;;;;;;;6.50;3.50;;;;;;;21.89;73.62;100443.47;2092803;28;20036;-78
2022/09/18 00:12:14;;;;;;;4.75;2.75;;;;;;;21.79;73.60;100445.56;2084739;28;20059;-78
2022/09/18 00:13:38;;;;;;;4.00;2.70;;;;;;;21.72;73.47;100449.44;2093098;28;20044;-79
2022/09/18 00:15:00;;;;;;;4.28;2.58;;;;;;;21.63;72.97;100440.81;2093344;28;20103;-78
2022/09/18 00:16:24;;;;;;;4.95;3.13;;;;;;;21.51;72.53;100450.19;2084629;28;20079;-78
2022/09/18 00:17:47;;;;;;;5.30;3.03;;;;;;;21.42;72.46;100443.31;2082705;28;20543;-77
2022/09/18 00:19:09;;;;;;;4.78;3.08;;;;;;;21.37;72.39;100444.41;2090347;28;20044;-77
2022/09/18 00:20:33;;;;;;;;;;;;;;;21.36;72.13;100443.50;2085351;28;20056;-78
2022/09/18 00:21:56;;;;;;;3.75;2.80;;;;;;;21.39;72.41;100443.44;2082903;28;19927;-78
2022/09/18 00:23:17;;;;;;;5.07;2.92;;;;;;;21.40;72.40;100442.47;2090593;28;20056;-78
2022/09/18 00:24:41;;;;;;;4.97;3.35;;;;;;;21.38;72.39;100441.66;2092856;28;20090;-78
2022/09/18 00:26:03;;;;;;;5.00;2.70;;;;;;;21.34;72.31;100441.81;2087625;28;20185;-78
2022/09/18 00:27:26;;;;;;;4.68;3.22;;;;;;;21.30;72.07;100446.41;2090728;28;20646;-78
2022/09/18 00:28:47;;;;;;;5.93;2.97;;;;;;;21.29;71.94;100444.66;2087556;28;20152;-77
2022/09/18 00:30:11;;;;;;;6.30;3.38;;;;;;;21.30;71.88;100446.41;2090563;28;20040;-79
2022/09/18 00:31:34;;;;;;;5.00;3.33;;;;;;;21.33;71.79;100445.44;2085170;28;20060;-78
2022/09/18 00:32:57;;;;;;;5.13;3.15;;;;;;;21.38;71.88;100438.09;2085243;28;20051;-78
2022/09/18 00:34:20;;;;;;;5.38;3.58;;;;;;;21.41;71.85;100438.84;2082546;28;20049;-79
2022/09/18 00:35:42;;;;;;;5.10;3.03;;;;;;;21.40;72.00;100445.16;2082493;28;20114;-79
2022/09/18 00:37:05;;;;;;;6.28;3.47;;;;;;;21.35;71.90;100447.13;2082515;28;20095;-78
2022/09/18 00:38:30;;;;;;;5.55;3.45;;;;;;;21.33;71.89;100445.44;2090751;28;20095;-78
2022/09/18 00:39:55;;;;;;;3.70;2.92;;;;;;;21.31;71.91;100439.22;2095876;28;20052;-78
2022/09/18 00:41:22;;;;;;;6.55;3.38;;;;;;;21.32;72.28;100446.38;2093516;28;20044;-78
2022/09/18 00:42:45;;;;;;;5.22;2.88;;;;;;;21.30;72.47;100448.22;2085740;28;20559;-77
2022/09/18 00:44:40;;;;;;;5.07;3.08;;;;;;;21.30;72.15;100448.22;2090386;28;20060;-78
2022/09/18 00:46:06;;;;;;;4.50;3.28;;;;;;;21.27;72.13;100449.19;2054097;28;20047;-78
2022/09/18 00:47:32;;;;;;;4.50;3.17;;;;;;;21.28;72.11;100442.00;2060337;28;20126;-78
2022/09/18 00:49:02;;;;;;;7.82;3.38;;;;;;;21.31;72.04;100447.28;2052429;28;20043;-78
2022/09/18 00:50:27;;;;;;;4.45;3.03;;;;;;;21.34;72.13;100448.06;2052967;28;20051;-78
2022/09/18 00:51:52;;;;;;;6.22;3.38;;;;;;;21.38;72.03;100455.09;2088717;28;20049;-78
2022/09/18 00:53:14;;;;;;;5.63;3.45;;;;;;;21.41;71.98;100449.59;2086749;28;20075;-78
2022/09/18 00:54:39;;;;;;;6.90;3.25;;;;;;;21.43;71.80;100455.81;2086526;28;20048;-78
2022/09/18 00:56:04;;;;;;;6.68;3.30;;;;;;;21.37;71.50;100456.03;2092796;28;20043;-77
2022/09/18 00:57:31;;;;;;;4.60;2.92;;;;;;;21.30;71.38;100448.22;2095285;28;20863;-78
2022/09/18 00:58:54;;;;;;;12.82;3.65;;;;;;;21.19;71.30;100453.94;2086722;28;20056;-77
2022/09/18 01:00:15;;;;;;;9.77;3.10;;;;;;;21.15;71.25;100456.72;2083437;28;20060;-78
2022/09/18 01:01:38;;;;;;;5.85;3.30;;;;;;;21.13;71.22;100454.13;2083678;28;20144;-78
2022/09/18 01:03:00;;;;;;;6.30;3.30;;;;;;;21.14;71.03;100452.28;2094643;28;20082;-78
2022/09/18 01:04:22;;;;;;;6.65;3.45;;;;;;;21.12;70.90;100452.38;2086021;28;20115;-78
2022/09/18 01:06:06;;;;;;;8.40;3.42;;;;;;;21.16;70.94;100455.84;2091938;28;20048;-78
2022/09/18 01:07:40;;;;;;;8.02;3.28;;;;;;;21.19;71.04;100451.28;2088734;28;20504;-78
2022/09/18 01:09:14;;;;;;;5.57;3.50;;;;;;;21.21;71.15;100443.13;2086802;28;20052;-78
2022/09/18 01:10:54;;;;;;;4.30;3.08;;;;;;;21.21;71.24;100444.03;2095013;28;20068;-78
2022/09/18 01:12:27;;;;;;;4.65;2.85;;;;;;;21.25;71.53;100445.69;2088934;28;20574;-78
2022/09/18 01:13:58;;;;;;;5.05;3.40;;;;;;;21.33;71.72;100448.13;2086140;28;20041;-78
2022/09/18 01:15:29;;;;;;;6.32;3.20;;;;;;;21.41;72.14;100441.53;2085934;28;20139;-78
2022/09/18 01:16:57;;;;;;;5.57;3.20;;;;;;;21.44;72.06;100444.13;2087317;28;20052;-78
2022/09/18 01:18:31;;;;;;;7.93;3.17;;;;;;;21.45;72.15;100448.59;2085366;28;20045;-78
2022/09/18 01:20:20;;;;;;;5.60;3.22;;;;;;;21.46;72.37;100446.78;2086950;28;20136;-78
2022/09/18 01:21:48;;;;;;;6.32;3.42;;;;;;;21.46;72.34;100444.94;2088972;28;20060;-78
2022/09/18 01:23:29;;;;;;;6.78;3.40;;;;;;;21.47;72.64;100444.03;2093286;28;20136;-78
2022/09/18 01:25:07;;;;;;;5.82;3.55;;;;;;;21.51;72.66;100435.88;2096883;28;20036;-78
2022/09/18 01:26:51;;;;;;;6.65;3.92;;;;;;;21.52;72.72;100443.00;2096818;28;20419;-78
2022/09/18 01:28:24;;;;;;;6.43;3.30;;;;;;;21.54;72.84;100444.69;2088857;28;20187;-77
2022/09/18 01:29:53;;;;;;;6.43;3.33;;;;;;;21.54;72.93;100436.63;2087728;28;20049;-78
2022/09/18 01:31:22;;;;;;;5.95;3.40;;;;;;;21.56;73.01;100434.78;2087088;28;20103;-78
2022/09/18 01:32:48;;;;;;;5.30;3.30;;;;;;;21.54;73.09;100438.44;2095123;28;20103;-78
2022/09/18 01:34:17;;;;;;;6.35;3.35;;;;;;;21.52;72.88;100434.94;2088727;28;20140;-78
2022/09/18 01:35:43;;;;;;;9.63;3.83;;;;;;;21.44;72.68;100441.47;2093471;28;20516;-78
2022/09/18 01:37:14;;;;;;;5.97;3.10;;;;;;;21.38;72.79;100441.66;2086813;28;20053;-78
2022/09/18 01:38:41;;;;;;;6.53;3.03;;;;;;;21.34;72.78;100437.31;2078766;28;20037;-77
2022/09/18 01:40:11;;;;;;;4.40;3.25;;;;;;;21.29;72.84;100441.09;2091231;28;20431;-78
2022/09/18 01:41:38;;;;;;;6.82;3.35;;;;;;;21.25;72.78;100439.44;2087143;28;20076;-79
2022/09/18 01:43:07;;;;;;;5.80;3.47;;;;;;;21.23;72.73;100444.84;2092956;28;20132;-78
2022/09/18 01:44:32;;;;;;;6.38;3.33;;;;;;;21.21;72.66;100443.13;2087034;28;20066;-78
2022/09/18 01:46:03;;;;;;;6.72;3.47;;;;;;;21.18;72.75;100436.09;2084780;28;20143;-78
2022/09/18 01:47:35;;;;;;;5.35;3.30;;;;;;;21.21;73.14;100443.13;2085956;28;20056;-78
2022/09/18 01:49:02;;;;;;;5.03;3.35;;;;;;;21.22;72.72;100434.16;2085028;28;20559;-78
2022/09/18 01:50:30;;;;;;;5.70;3.40;;;;;;;21.20;72.86;100446.78;2085012;28;20073;-78
2022/09/18 01:51:57;;;;;;;5.28;3.20;;;;;;;21.18;72.85;100443.25;2084442;28;20068;-78
2022/09/18 01:53:24;;;;;;;5.80;3.40;;;;;;;21.17;72.64;100450.44;2084817;28;20083;-78
2022/09/18 01:54:51;;;;;;;7.35;3.50;;;;;;;21.15;72.70;100452.25;2084513;28;20055;-78
2022/09/18 01:56:18;;;;;;;5.20;3.17;;;;;;;21.15;72.65;100444.19;2076364;28;20037;-79
2022/09/18 01:57:47;;;;;;;5.63;3.33;;;;;;;21.16;72.50;100450.47;2082661;28;20099;-79
2022/09/18 01:59:12;;;;;;;5.45;3.22;;;;;;;21.17;72.68;100446.88;2085430;28;20049;-79
2022/09/18 02:00:50;;;;;;;7.22;3.50;;;;;;;21.22;72.73;100452.94;2094717;28;20456;-79
2022/09/18 02:02:20;;;;;;;4.90;3.33;;;;;;;21.27;72.85;100451.88;2086373;28;20488;-79
2022/09/18 02:03:46;;;;;;;6.63;3.47;;;;;;;21.29;72.90;100452.69;2093308;28;20079;-80
2022/09/18 02:05:15;;;;;;;7.38;3.63;;;;;;;21.31;72.81;100449.97;2086356;28;20052;-79
2022/09/18 02:06:41;;;;;;;7.75;3.38;;;;;;;21.30;72.93;100459.84;2085241;28;20061;-79
2022/09/18 02:08:11;;;;;;;6.53;3.65;;;;;;;21.33;73.06;100457.03;2084211;28;20460;-79
2022/09/18 02:09:35;;;;;;;5.28;3.35;;;;;;;21.32;73.12;100449.94;2093664;28;20049;-79
2022/09/18 02:11:01;;;;;;;8.15;3.83;;;;;;;21.33;73.25;100454.34;2088430;28;20138;-78
2022/09/18 02:12:26;;;;;;;7.43;3.42;;;;;;;21.32;73.17;100458.00;2086342;28;20547;-79
2022/09/18 02:13:58;;;;;;;6.53;3.60;;;;;;;21.29;73.05;100465.25;2076694;28;20500;-80
2022/09/18 02:15:33;;;;;;;6.15;3.70;;;;;;;21.28;73.23;100461.69;2087256;28;20448;-80
2022/09/18 02:17:08;;;;;;;4.28;3.22;;;;;;;21.33;73.17;100459.72;2086552;28;20055;-80
2022/09/18 02:18:36;;;;;;;5.60;3.67;;;;;;;21.37;73.36;100460.50;2084778;28;20482;-79
2022/09/18 02:20:07;;;;;;;8.35;3.80;;;;;;;21.39;73.50;100459.53;2088243;28;20047;-78
2022/09/18 02:21:32;;;;;;;5.43;3.58;;;;;;;21.40;73.37;100477.38;2086602;28;20053;-78
2022/09/18 02:22:58;;;;;;;6.47;3.33;;;;;;;21.37;73.33;100466.75;2084074;28;20040;-78
2022/09/18 02:24:24;;;;;;;6.50;3.47;;;;;;;21.36;73.16;100465.00;2083608;28;20052;-78
2022/09/18 02:25:53;;;;;;;6.47;3.70;;;;;;;21.37;73.43;100464.06;2083769;28;20523;-79
2022/09/18 02:27:18;;;;;;;5.40;3.50;;;;;;;21.38;73.29;100468.53;2086744;28;20512;-78
2022/09/18 02:28:40;;;;;;;5.68;3.53;;;;;;;21.38;73.10;100464.97;2083768;28;20036;-78
2022/09/18 02:30:07;;;;;;;6.38;3.42;;;;;;;21.36;73.03;100465.00;2091746;28;20048;-78
2022/09/18 02:31:33;;;;;;;7.68;3.70;;;;;;;21.37;73.25;100469.44;2086267;28;20142;-78
2022/09/18 02:32:57;;;;;;;6.05;3.70;;;;;;;21.41;73.51;100468.41;2084091;28;20112;-78
2022/09/18 02:34:21;;;;;;;5.93;3.45;;;;;;;21.41;73.63;100473.78;2083632;28;20149;-78
2022/09/18 02:35:49;;;;;;;4.47;2.97;;;;;;;21.44;73.77;100479.06;2083668;28;20048;-78
2022/09/18 02:37:24;;;;;;;7.38;3.42;;;;;;;21.45;73.83;100478.13;2094999;28;20048;-78
2022/09/18 02:38:57;;;;;;;8.02;3.45;;;;;;;21.45;73.86;100480.81;2087256;28;20045;-79
2022/09/18 02:40:38;;;;;;;6.82;3.42;;;;;;;21.45;73.87;100482.63;2077317;28;20053;-78
2022/09/18 02:42:10;;;;;;;5.80;3.05;;;;;;;21.44;73.91;100479.06;2088294;28;20064;-78
2022/09/18 02:43:47;;;;;;;8.15;3.45;;;;;;;21.44;73.91;100488.91;2085899;28;20584;-78
2022/09/18 02:45:18;;;;;;;5.43;3.25;;;;;;;21.40;73.85;100493.50;2087391;28;20496;-78
2022/09/18 02:46:54;;;;;;;4.88;2.95;;;;;;;21.35;73.73;100487.41;2086749;28;20448;-78
2022/09/18 02:48:30;;;;;;;5.32;3.30;;;;;;;21.30;73.57;100486.69;2086611;28;20049;-78
2022/09/18 02:50:03;;;;;;;6.18;3.25;;;;;;;21.28;73.67;100487.66;2087389;28;20041;-78
2022/09/18 02:51:35;;;;;;;5.07;3.10;;;;;;;21.26;73.66;100482.38;2086868;28;20126;-78
2022/09/18 02:53:03;;;;;;;5.97;3.40;;;;;;;21.26;73.81;100487.72;2076964;28;20076;-78
2022/09/18 02:54:31;;;;;;;6.32;3.47;;;;;;;21.29;73.80;100494.78;2083377;28;20504;-78
2022/09/18 02:56:01;;;;;;;7.50;4.15;;;;;;;21.30;74.00;100491.19;2085135;28;20095;-78
2022/09/18 02:57:35;;;;;;;4.65;3.63;;;;;;;21.35;74.22;100494.59;2085271;28;20052;-78
2022/09/18 02:59:04;;;;;;;7.68;3.28;;;;;;;21.36;73.88;100491.84;2085417;28;20041;-78
2022/09/18 03:00:28;;;;;;;7.03;3.28;;;;;;;21.36;74.06;100480.22;2075934;28;20100;-78
2022/09/18 03:01:53;;;;;;;4.78;3.25;;;;;;;21.37;74.26;100490.94;2083190;28;20044;-78
2022/09/18 03:03:17;;;;;;;5.55;3.55;;;;;;;21.39;74.22;100497.16;2085396;28;20140;-78
2022/09/18 03:04:48;;;;;;;3.80;3.20;;;;;;;21.43;74.42;100500.59;2085049;28;20049;-78
2022/09/18 03:06:23;;;;;;;4.72;3.00;;;;;;;21.44;74.70;100499.66;2103449;28;20048;-78
2022/09/18 03:07:46;;;;;;;5.97;3.10;;;;;;;21.45;74.68;100498.75;2082242;28;20068;-78
2022/09/18 03:09:07;;;;;;;7.03;3.13;;;;;;;21.46;74.81;100501.34;2091220;28;20135;-78
2022/09/18 03:10:31;;;;;;;6.55;3.47;;;;;;;21.48;75.10;100501.31;2079699;28;20058;-77
2022/09/18 03:11:52;;;;;;;4.78;3.15;;;;;;;21.51;75.26;100511.09;2085431;28;20049;-78
2022/09/18 03:13:15;;;;;;;6.47;3.42;;;;;;;21.50;75.20;100509.31;2087642;28;20041;-78
2022/09/18 03:14:38;;;;;;;6.47;3.60;;;;;;;21.50;75.37;100504.84;2079802;28;20048;-79
2022/09/18 03:15:59;;;;;;;7.38;3.72;;;;;;;21.53;75.29;100509.25;2077155;28;20131;-78
2022/09/18 03:17:22;;;;;;;6.15;3.17;;;;;;;21.51;75.23;100513.78;2093887;28;20094;-79
2022/09/18 03:18:44;;;;;;;4.97;3.38;;;;;;;21.50;75.20;100512.91;2082149;28;20096;-78
2022/09/18 03:20:08;;;;;;;7.72;3.80;;;;;;;21.50;75.07;100517.38;2076736;28;20057;-78
2022/09/18 03:21:30;;;;;;;5.82;3.38;;;;;;;21.48;74.92;100512.94;2074993;28;20061;-79
2022/09/18 03:22:52;;;;;;;5.10;3.42;;;;;;;21.50;75.02;100525.44;2093680;28;20396;-78
2022/09/18 03:24:15;;;;;;;6.45;3.17;;;;;;;21.48;74.92;100514.75;2071445;28;20532;-79
2022/09/18 03:25:38;;;;;;;5.25;3.45;;;;;;;21.47;74.69;100513.88;2081456;28;20045;-78
2022/09/18 03:27:01;;;;;;;7.35;3.22;;;;;;;21.47;74.75;100516.53;2076791;28;20132;-78
2022/09/18 03:28:23;;;;;;;5.65;4.00;;;;;;;21.46;74.66;100506.72;2074678;28;20052;-78
2022/09/18 03:29:47;;;;;;;4.03;3.22;;;;;;;21.46;74.84;100498.66;2074792;28;20045;-78
2022/09/18 03:31:12;;;;;;;8.25;3.20;;;;;;;21.47;75.14;100500.44;2082541;28;20140;-78
2022/09/18 03:32:34;;;;;;;6.57;3.00;;;;;;;21.46;75.17;100498.66;2085019;28;20146;-78
2022/09/18 03:33:57;;;;;;;4.05;3.10;;;;;;;21.45;75.33;100499.63;2082238;28;20037;-78
2022/09/18 03:35:22;;;;;;;4.80;3.50;;;;;;;21.45;75.43;100496.94;2082803;28;20045;-78
2022/09/18 03:36:45;;;;;;;5.93;3.60;;;;;;;21.46;75.52;100493.28;2090985;28;20528;-78
2022/09/18 03:38:08;;;;;;;5.55;3.10;;;;;;;21.47;75.61;100487.00;2085365;28;20694;-78
2022/09/18 03:39:30;;;;;;;4.28;2.65;;;;;;;21.50;75.62;100487.84;2082308;28;20702;-78
2022/09/18 03:40:54;;;;;;;4.20;2.65;;;;;;;21.52;75.68;100475.25;2082399;28;20421;-78
2022/09/18 03:42:15;;;;;;;5.80;3.28;;;;;;;21.54;75.62;100484.09;2082531;28;20041;-78
2022/09/18 03:43:38;;;;;;;6.75;3.28;;;;;;;21.54;75.61;100494.84;2082174;28;20214;-78
2022/09/18 03:45:00;;;;;;;6.45;2.72;;;;;;;21.54;75.46;100492.16;2082758;28;20040;-78
2022/09/18 03:46:23;;;;;;;4.38;2.88;;;;;;;21.50;75.40;100487.84;2082560;28;20040;-78
2022/09/18 03:47:47;;;;;;;3.72;2.95;;;;;;;21.46;75.50;100493.28;2083162;28;20056;-78
2022/09/18 03:49:10;;;;;;;5.72;3.25;;;;;;;21.45;75.33;100488.88;2082443;28;20385;-78
2022/09/18 03:50:36;;;;;;;8.43;3.28;;;;;;;21.46;75.42;100487.91;2083260;28;20621;-79
2022/09/18 03:51:59;;;;;;;7.55;3.20;;;;;;;21.44;75.66;100484.44;2082951;28;20053;-79
2022/09/18 03:53:26;;;;;;;5.38;3.25;;;;;;;21.45;75.46;100483.50;2083485;28;20054;-79
2022/09/18 03:55:16;;;;;;;4.18;2.53;;;;;;;21.45;75.59;100491.56;2087623;28;20048;-79
2022/09/18 03:57:02;;;;;;;5.05;2.90;;;;;;;21.43;75.58;100493.41;2075749;28;20155;-78
2022/09/18 03:58:56;;;;;;;5.18;3.22;;;;;;;21.41;75.52;100500.63;2078773;28;20084;-77
2022/09/18 04:00:37;;;;;;;4.32;2.90;;;;;;;21.36;75.29;100497.22;2095849;28;20036;-78
2022/09/18 04:02:06;;;;;;;11.60;4.57;;;;;;;21.32;75.19;100494.72;2077321;28;20147;-79
2022/09/18 04:03:58;;;;;;;6.03;3.30;;;;;;;21.34;75.50;100493.72;2092268;28;20464;-77
2022/09/18 04:05:42;;;;;;;;;;;;;;;21.34;75.56;100499.06;2096327;28;20099;-79
2022/09/18 04:07:28;;;;;;;5.90;3.30;;;;;;;21.35;75.49;100498.16;2096009;28;19927;-79
2022/09/18 04:09:13;;;;;;;7.28;3.13;;;;;;;21.37;75.44;100498.09;2095489;28;20683;-79
2022/09/18 04:10:42;;;;;;;5.60;2.75;;;;;;;21.38;75.33;100495.38;2085854;28;20045;-78
2022/09/18 04:12:05;;;;;;;3.78;2.95;;;;;;;21.36;75.28;100496.34;2082512;28;20053;-79
2022/09/18 04:13:28;;;;;;;4.70;2.97;;;;;;;21.38;75.32;100497.19;2082447;28;20053;-78
2022/09/18 04:14:56;;;;;;;6.93;3.15;;;;;;;21.42;75.56;100490.78;2083942;28;20033;-79
2022/09/18 04:16:19;;;;;;;6.35;2.88;;;;;;;21.48;75.76;100499.50;2084713;28;20060;-79
2022/09/18 04:17:41;;;;;;;5.43;3.10;;;;;;;21.57;75.82;100502.81;2090696;28;20420;-78
2022/09/18 04:19:04;;;;;;;4.40;2.70;;;;;;;21.63;75.83;100499.94;2084725;28;20393;-78
2022/09/18 04:20:25;;;;;;;5.10;2.80;;;;;;;21.68;75.88;100497.94;2085084;28;20216;-78
2022/09/18 04:21:49;;;;;;;5.70;3.40;;;;;;;21.73;75.89;100501.34;2082193;28;20049;-79
2022/09/18 04:23:13;;;;;;;7.35;3.55;;;;;;;21.73;75.71;100509.41;2082170;28;20677;-78
2022/09/18 04:24:35;;;;;;;5.95;2.70;;;;;;;21.70;75.75;100509.53;2082924;28;20065;-79
2022/09/18 04:26:00;;;;;;;6.65;2.80;;;;;;;21.70;75.77;100509.53;2103627;28;20051;-78
2022/09/18 04:27:26;;;;;;;5.70;2.58;;;;;;;21.70;75.80;100517.59;2089115;28;20045;-79
2022/09/18 04:28:48;;;;;;;7.22;2.70;;;;;;;21.70;75.76;100518.47;2078542;28;20037;-79
2022/09/18 04:30:13;;;;;;;6.18;2.97;;;;;;;21.68;75.73;100514.94;2083912;28;20075;-78
2022/09/18 04:31:36;;;;;;;5.60;2.85;;;;;;;21.69;75.66;100521.22;2085120;28;20551;-79
2022/09/18 04:33:02;;;;;;;4.63;2.17;;;;;;;21.75;75.81;100523.69;2087027;28;20135;-78
2022/09/18 04:34:24;;;;;;;4.07;2.67;;;;;;;21.83;75.92;100525.19;2084217;28;20480;-79
2022/09/18 04:35:47;;;;;;;3.47;2.60;;;;;;;21.96;75.90;100528.38;2083788;28;20064;-79
2022/09/18 04:37:10;;;;;;;3.38;2.35;;;;;;;22.11;75.72;100535.91;2083852;28;20096;-79
2022/09/18 04:38:33;;;;;;;4.82;2.42;;;;;;;22.25;75.70;100532.72;2092327;28;20051;-79
2022/09/18 04:39:55;;;;;;;5.15;2.60;;;;;;;22.39;75.47;100541.13;2086718;28;20045;-78
2022/09/18 04:41:18;;;;;;;7.78;4.00;;;;;;;22.53;75.23;100541.50;2086669;28;20045;-79
2022/09/18 04:42:39;;;;;;;3.65;2.50;;;;;;;22.70;75.08;100548.09;2084012;28;20045;-79
2022/09/18 04:44:02;;;;;;;5.35;2.42;;;;;;;22.81;74.98;100537.81;2083560;28;20052;-79
2022/09/18 04:45:24;;;;;;;3.67;2.25;;;;;;;22.93;74.73;100549.00;2075962;28;20489;-79
2022/09/18 04:46:46;;;;;;;;;;;;;;;23.05;74.71;100544.94;2098426;28;20047;-78
2022/09/18 04:48:09;;;;;;;4.75;2.20;;;;;;;23.19;74.46;100544.41;2089114;28;20004;-80
2022/09/18 04:49:32;;;;;;;3.67;2.22;;;;;;;23.29;74.07;100552.06;2083847;28;20049;-79
2022/09/18 04:50:55;;;;;;;5.00;2.00;;;;;;;23.42;74.08;100541.69;2084266;28;20056;-79
2022/09/18 04:52:19;;;;;;;5.78;1.92;;;;;;;23.54;73.92;100554.69;2091919;28;20128;-79
2022/09/18 04:53:42;;;;;;;3.58;1.77;;;;;;;23.62;73.72;100544.47;2086486;28;20095;-80
2022/09/18 04:55:04;;;;;;;2.70;2.10;;;;;;;23.73;73.72;100546.69;2083865;28;20048;-79
2022/09/18 04:56:29;;;;;;;3.25;2.08;;;;;;;23.82;73.37;100549.03;2083783;28;20288;-79
2022/09/18 04:57:55;;;;;;;6.18;1.67;;;;;;;23.87;73.09;100544.31;2086724;28;20041;-78
2022/09/18 05:00:57;;;;;;;2.47;1.55;;;;;;;24.04;73.17;100547.13;2088019;28;20132;-78
2022/09/18 05:02:22;;;;;;;4.18;1.60;;;;;;;24.16;72.83;100543.03;2078692;28;20056;-80
2022/09/18 05:03:46;;;;;;;5.18;2.20;;;;;;;24.32;72.88;100541.44;2078500;28;20060;-78
2022/09/18 05:05:20;;;;;;;2.40;1.38;;;;;;;24.46;72.29;100544.41;2087528;28;20055;-78
2022/09/18 05:06:42;;;;;;;4.57;1.80;;;;;;;24.59;72.15;100550.13;2092141;28;20427;-80
2022/09/18 05:08:07;;;;;;;3.47;1.50;;;;;;;24.71;71.91;100549.56;2094592;28;20041;-80
2022/09/18 05:09:29;;;;;;;8.65;1.75;;;;;;;24.76;71.32;100552.91;2086212;28;20099;-80
2022/09/18 05:10:52;;;;;;;4.60;1.65;;;;;;;24.74;70.94;100552.13;2091963;28;20079;-76
2022/09/18 05:12:15;;;;;;;3.63;1.90;;;;;;;24.70;70.70;100553.19;2077903;28;20045;-77
2022/09/18 05:13:38;;;;;;;3.17;1.38;;;;;;;24.72;71.40;100558.53;2088981;28;20500;-77
2022/09/18 05:15:07;;;;;;;3.63;1.67;;;;;;;24.65;72.74;100557.06;2087070;28;20061;-77
2022/09/18 05:16:30;;;;;;;1.67;1.45;;;;;;;24.57;73.76;100558.28;2083711;28;20119;-78
2022/09/18 05:18:16;;;;;;;3.67;1.63;;;;;;;24.47;74.49;100562.38;2088323;28;20073;-77
2022/09/18 05:19:40;;;;;;;2.67;1.42;;;;;;;24.29;75.40;100557.75;2082563;28;20049;-75
2022/09/18 05:21:09;;;;;;;4.18;1.60;;;;;;;24.13;76.68;100556.66;2086471;28;20056;-75
2022/09/18 05:22:32;;;;;;;3.90;1.70;;;;;;;24.07;77.14;100568.59;2083315;28;20055;-75
2022/09/18 05:23:57;;;;;;;5.60;1.60;;;;;;;24.12;77.96;100563.88;2083588;28;20033;-75
2022/09/18 05:25:19;;;;;;;2.97;1.58;;;;;;;24.22;77.91;100573.34;2086294;28;20040;-75
2022/09/18 05:26:42;;;;;;;3.17;1.48;;;;;;;24.37;77.56;100560.13;2077154;28;20056;-75
2022/09/18 05:28:04;;;;;;;5.13;1.58;;;;;;;24.52;76.77;100564.84;2077855;28;20049;-75
2022/09/18 05:29:37;;;;;;;4.38;1.42;;;;;;;24.67;76.53;100572.25;2086267;28;20045;-75
2022/09/18 05:31:08;;;;;;;3.03;1.38;;;;;;;24.85;76.09;100570.53;2102432;28;20040;-75
2022/09/18 05:32:36;;;;;;;3.70;1.38;;;;;;;25.03;75.49;100569.69;2088434;28;20152;-74
2022/09/18 05:35:53;;;;;;;1.73;1.30;;;;;;;25.40;72.96;100566.13;1737899;23;21853;-75
2022/09/18 05:37:18;;;;;;;2.25;1.48;;;;;;;25.54;72.76;100569.00;2039731;29;20498;-75
2022/09/18 05:38:44;;;;;;;4.30;1.40;;;;;;;25.68;72.22;100571.06;2024276;29;21623;-75
2022/09/18 05:40:10;;;;;;;4.15;1.50;;;;;;;25.86;71.63;100567.47;2030010;29;20064;-75
2022/09/18 05:41:32;;;;;;;4.30;1.38;;;;;;;25.99;71.10;100571.25;2022957;29;20044;-76
2022/09/18 05:42:57;;;;;;;3.22;1.45;;;;;;;26.15;70.73;100571.34;2028700;29;20114;-76
2022/09/18 05:44:20;;;;;;;5.13;1.27;;;;;;;26.30;70.23;100557.06;2024958;29;20058;-75
2022/09/18 05:45:44;;;;;;;4.53;1.73;;;;;;;26.50;69.62;100567.72;2020091;29;20072;-77
2022/09/18 05:47:14;;;;;;;3.50;1.33;;;;;;;26.71;69.11;100563.00;2023312;29;20048;-76
2022/09/18 05:48:37;;;;;;;3.20;1.48;;;;;;;26.90;68.36;100565.59;2019650;29;20048;-77
2022/09/18 05:49:58;;;;;;;10.05;2.05;;;;;;;27.08;67.22;100569.13;2021973;29;20075;-76
2022/09/18 05:51:21;;;;;;;2.92;1.48;;;;;;;27.23;65.65;100569.13;2028044;29;20147;-76
2022/09/18 05:52:44;;;;;;;3.10;1.38;;;;;;;27.42;64.54;100566.25;2022132;29;20068;-77
2022/09/18 05:54:07;;;;;;;3.85;1.10;;;;;;;27.64;63.09;100569.50;2027376;29;20095;-76
2022/09/18 05:55:38;;;;;;;3.38;1.23;;;;;;;27.90;61.98;100569.78;2016544;29;20468;-75
2022/09/18 05:57:01;;;;;;;4.28;1.27;;;;;;;28.09;61.31;100579.47;2021403;29;21115;-76
2022/09/18 05:58:25;;;;;;;1.80;1.02;;;;;;;28.30;60.31;100571.03;2020727;29;20082;-77
2022/09/18 05:59:49;;;;;;;4.10;1.65;;;;;;;28.47;59.17;100574.47;2022425;29;20063;-76
2022/09/18 06:01:13;;;;;;;2.70;1.05;;;;;;;28.62;58.77;100566.34;2022321;29;20449;-77
2022/09/18 06:03:00;;;;;;;3.53;1.23;;;;;;;28.83;57.93;100575.88;2032390;29;20158;-76
2022/09/18 06:04:24;;;;;;;3.15;1.27;;;;;;;28.98;57.36;100582.22;2029813;29;20840;-77
2022/09/18 06:05:55;;;;;;;3.47;1.42;;;;;;;29.18;56.76;100582.69;2024375;29;20541;-77
2022/09/18 06:07:17;;;;;;;5.07;1.17;;;;;;;29.35;56.21;100580.72;2026941;29;20689;-76
2022/09/18 06:08:40;;;;;;;1.83;0.98;;;;;;;29.43;56.10;100581.13;2021735;29;20064;-76
2022/09/18 06:10:03;;;;;;;1.77;1.10;;;;;;;29.57;55.78;100583.81;2021420;29;20058;-76
2022/09/18 06:11:28;;;;;;;3.30;1.08;;;;;;;29.73;55.18;100588.13;2029673;29;20076;-77
2022/09/18 06:12:49;;;;;;;2.28;0.90;;;;;;;29.87;55.14;100578.16;2029766;29;20143;-76
2022/09/18 06:14:13;;;;;;;2.33;0.85;;;;;;;29.97;54.32;100585.66;2029627;29;20130;-77
2022/09/18 06:15:37;;;;;;;3.05;1.50;;;;;;;30.10;53.71;100580.22;2022014;29;20063;-77
2022/09/18 06:17:00;;;;;;;4.68;1.25;;;;;;;30.25;53.45;100583.75;2027456;29;20087;-76
2022/09/18 06:18:23;;;;;;;1.20;1.10;;;;;;;30.42;52.72;100578.88;2031607;29;20123;-76
2022/09/18 06:19:48;;;;;;;1.17;0.90;;;;;;;30.61;51.75;100580.34;2018747;29;20052;-76
2022/09/18 06:21:13;;;;;;;2.80;1.00;;;;;;;30.65;51.48;100581.88;2026584;29;20059;-77
2022/09/18 06:22:37;;;;;;;3.63;1.42;;;;;;;30.73;51.08;100584.91;2027881;29;20662;-76
2022/09/18 06:24:03;;;;;;;9.30;1.23;;;;;;;30.80;50.49;100587.09;2029561;29;20150;-76
2022/09/18 06:25:42;;;;;;;2.72;0.95;;;;;;;30.97;49.75;100580.47;2023761;29;20055;-76
2022/09/18 06:27:07;;;;;;;2.40;1.00;;;;;;;31.02;49.36;100580.13;2026911;29;20051;-77
2022/09/18 06:28:32;;;;;;;1.70;1.00;;;;;;;31.09;48.93;100578.72;2030008;29;20051;-76
2022/09/18 06:29:56;;;;;;;4.38;1.10;;;;;;;31.12;48.99;100579.34;2035076;29;20535;-76
2022/09/18 06:31:24;;;;;;;3.05;1.05;;;;;;;31.23;48.88;100584.06;2030353;29;20044;-76
2022/09/18 06:33:03;;;;;;;3.17;0.90;;;;;;;31.34;49.23;100581.41;2031392;29;20147;-76
2022/09/18 06:34:24;;;;;;;1.65;1.10;;;;;;;31.49;48.69;100580.28;2029755;29;20068;-76
2022/09/18 06:35:49;;;;;;;2.97;0.85;;;;;;;31.61;48.00;100579.38;2029913;29;20039;-76
2022/09/18 06:37:20;;;;;;;1.55;1.10;;;;;;;31.74;47.64;100582.06;2038291;29;20554;-75
2022/09/18 06:39:06;;;;;;;4.35;1.25;;;;;;;31.88;47.26;100576.44;2047174;28;20107;-77
2022/09/18 06:40:28;;;;;;;4.00;0.90;;;;;;;32.01;46.96;100582.69;2037756;29;20087;-76
2022/09/18 06:42:12;;;;;;;1.15;0.70;;;;;;;32.04;47.06;100582.44;2039942;29;20272;-75
2022/09/18 06:43:53;;;;;;;;;;;;;;;32.00;46.92;100591.88;2042240;29;20103;-76
2022/09/18 06:45:35;;;;;;;4.03;1.10;;;;;;;32.16;47.38;100588.88;2039644;29;19955;-76
2022/09/18 06:47:00;;;;;;;2.80;0.95;;;;;;;32.30;46.70;100594.13;2029676;29;20083;-76
2022/09/18 06:48:29;;;;;;;2.78;0.80;;;;;;;32.42;46.14;100582.28;2030075;29;20115;-76
2022/09/18 06:49:54;;;;;;;3.75;1.00;;;;;;;32.51;45.80;100579.78;2035048;29;20055;-76